sensor_id;sensor_type;location;lat;lon;timestamp;P1;durP1;ratioP1;P2;durP2;ratioP2
16820;SDS011;8527;49.740;6.604;2024-02-14T00:03:40;2.67;;;1.55;;
16820;SDS011;8527;49.740;6.604;2024-02-14T00:08:42;3.90;;;1.95;;
16820;SDS011;8527;49.740;6.604;2024-02-14T00:13:40;3.72;;;1.80;;
16820;SDS011;8527;49.740;6.604;2024-02-14T00:18:38;2.47;;;1.25;;
16820;SDS011;8527;49.740;6.604;2024-02-14T00:23:37;5.40;;;1.80;;
16820;SDS011;8527;49.740;6.604;2024-02-14T00:28:38;2.75;;;1.50;;
16820;SDS011;8527;49.740;6.604;2024-02-14T00:33:36;3.00;;;1.70;;
16820;SDS011;8527;49.740;6.604;2024-02-14T00:38:34;3.15;;;1.70;;
16820;SDS011;8527;49.740;6.604;2024-02-14T00:43:33;4.93;;;1.92;;
16820;SDS011;8527;49.740;6.604;2024-02-14T00:48:34;5.38;;;1.80;;
16820;SDS011;8527;49.740;6.604;2024-02-14T00:53:35;4.65;;;2.17;;
16820;SDS011;8527;49.740;6.604;2024-02-14T00:58:36;3.08;;;1.70;;
16820;SDS011;8527;49.740;6.604;2024-02-14T01:03:46;3.30;;;1.52;;
16820;SDS011;8527;49.740;6.604;2024-02-14T01:08:44;3.30;;;1.85;;
16820;SDS011;8527;49.740;6.604;2024-02-14T01:13:43;2.17;;;1.55;;
16820;SDS011;8527;49.740;6.604;2024-02-14T01:18:41;4.70;;;2.10;;
16820;SDS011;8527;49.740;6.604;2024-02-14T01:23:45;7.15;;;1.77;;
16820;SDS011;8527;49.740;6.604;2024-02-14T01:28:44;5.82;;;1.73;;
16820;SDS011;8527;49.740;6.604;2024-02-14T01:33:42;5.88;;;2.00;;
16820;SDS011;8527;49.740;6.604;2024-02-14T01:38:41;2.65;;;2.00;;
16820;SDS011;8527;49.740;6.604;2024-02-14T01:43:43;4.10;;;1.70;;
16820;SDS011;8527;49.740;6.604;2024-02-14T01:48:43;4.40;;;1.70;;
16820;SDS011;8527;49.740;6.604;2024-02-14T01:53:50;3.65;;;1.77;;
16820;SDS011;8527;49.740;6.604;2024-02-14T01:58:50;3.78;;;1.95;;
16820;SDS011;8527;49.740;6.604;2024-02-14T02:03:57;3.70;;;2.22;;
16820;SDS011;8527;49.740;6.604;2024-02-14T02:08:58;3.03;;;1.80;;
16820;SDS011;8527;49.740;6.604;2024-02-14T02:14:06;3.37;;;2.10;;
16820;SDS011;8527;49.740;6.604;2024-02-14T02:19:07;2.00;;;1.80;;
16820;SDS011;8527;49.740;6.604;2024-02-14T02:24:12;3.63;;;1.88;;
16820;SDS011;8527;49.740;6.604;2024-02-14T02:29:11;4.00;;;1.65;;
16820;SDS011;8527;49.740;6.604;2024-02-14T02:34:14;2.60;;;1.85;;
16820;SDS011;8527;49.740;6.604;2024-02-14T02:39:16;2.95;;;1.90;;
16820;SDS011;8527;49.740;6.604;2024-02-14T02:44:17;5.65;;;2.80;;
16820;SDS011;8527;49.740;6.604;2024-02-14T02:49:18;3.08;;;1.92;;
16820;SDS011;8527;49.740;6.604;2024-02-14T02:54:19;7.55;;;2.03;;
16820;SDS011;8527;49.740;6.604;2024-02-14T02:59:21;3.70;;;1.77;;
16820;SDS011;8527;49.740;6.604;2024-02-14T03:04:25;3.03;;;1.83;;
16820;SDS011;8527;49.740;6.604;2024-02-14T03:09:27;4.95;;;1.90;;
16820;SDS011;8527;49.740;6.604;2024-02-14T03:14:29;2.78;;;1.70;;
16820;SDS011;8527;49.740;6.604;2024-02-14T03:19:31;5.00;;;1.83;;
16820;SDS011;8527;49.740;6.604;2024-02-14T03:24:36;3.88;;;1.90;;
16820;SDS011;8527;49.740;6.604;2024-02-14T03:29:37;6.13;;;1.67;;
16820;SDS011;8527;49.740;6.604;2024-02-14T03:34:36;6.47;;;2.45;;
16820;SDS011;8527;49.740;6.604;2024-02-14T03:39:40;4.25;;;1.90;;
16820;SDS011;8527;49.740;6.604;2024-02-14T03:44:46;8.23;;;2.40;;
16820;SDS011;8527;49.740;6.604;2024-02-14T03:49:44;2.42;;;1.70;;
16820;SDS011;8527;49.740;6.604;2024-02-14T03:54:46;2.63;;;1.52;;
16820;SDS011;8527;49.740;6.604;2024-02-14T03:59:47;6.32;;;2.13;;
16820;SDS011;8527;49.740;6.604;2024-02-14T04:04:45;2.95;;;1.63;;
16820;SDS011;8527;49.740;6.604;2024-02-14T04:09:46;2.78;;;2.10;;
16820;SDS011;8527;49.740;6.604;2024-02-14T04:14:45;3.40;;;1.80;;
16820;SDS011;8527;49.740;6.604;2024-02-14T04:19:46;4.50;;;1.70;;
16820;SDS011;8527;49.740;6.604;2024-02-14T04:24:47;6.15;;;2.08;;
16820;SDS011;8527;49.740;6.604;2024-02-14T04:29:46;5.32;;;2.00;;
16820;SDS011;8527;49.740;6.604;2024-02-14T04:34:44;4.63;;;1.95;;
16820;SDS011;8527;49.740;6.604;2024-02-14T04:39:44;3.30;;;2.20;;
16820;SDS011;8527;49.740;6.604;2024-02-14T04:44:45;3.20;;;1.95;;
16820;SDS011;8527;49.740;6.604;2024-02-14T04:49:47;6.90;;;2.15;;
16820;SDS011;8527;49.740;6.604;2024-02-14T04:54:46;6.13;;;2.40;;
16820;SDS011;8527;49.740;6.604;2024-02-14T04:59:47;2.95;;;1.95;;
16820;SDS011;8527;49.740;6.604;2024-02-14T05:04:46;7.15;;;2.20;;
16820;SDS011;8527;49.740;6.604;2024-02-14T05:09:44;5.63;;;2.08;;
16820;SDS011;8527;49.740;6.604;2024-02-14T05:14:50;8.27;;;2.40;;
16820;SDS011;8527;49.740;6.604;2024-02-14T05:19:51;4.68;;;2.38;;
16820;SDS011;8527;49.740;6.604;2024-02-14T05:24:49;3.13;;;1.92;;
16820;SDS011;8527;49.740;6.604;2024-02-14T05:29:50;4.72;;;2.15;;
16820;SDS011;8527;49.740;6.604;2024-02-14T05:34:50;5.57;;;2.40;;
16820;SDS011;8527;49.740;6.604;2024-02-14T05:39:49;3.78;;;1.95;;
16820;SDS011;8527;49.740;6.604;2024-02-14T05:44:51;5.32;;;2.30;;
16820;SDS011;8527;49.740;6.604;2024-02-14T05:49:49;6.82;;;2.40;;
16820;SDS011;8527;49.740;6.604;2024-02-14T05:54:51;6.57;;;2.40;;
16820;SDS011;8527;49.740;6.604;2024-02-14T05:59:58;5.60;;;2.53;;
16820;SDS011;8527;49.740;6.604;2024-02-14T06:04:57;9.98;;;2.45;;
16820;SDS011;8527;49.740;6.604;2024-02-14T06:09:56;4.55;;;2.25;;
16820;SDS011;8527;49.740;6.604;2024-02-14T06:14:54;5.70;;;2.70;;
16820;SDS011;8527;49.740;6.604;2024-02-14T06:20:03;5.18;;;2.45;;
16820;SDS011;8527;49.740;6.604;2024-02-14T06:25:05;5.95;;;2.60;;
16820;SDS011;8527;49.740;6.604;2024-02-14T06:30:08;6.53;;;2.63;;
16820;SDS011;8527;49.740;6.604;2024-02-14T06:35:09;4.18;;;2.67;;
16820;SDS011;8527;49.740;6.604;2024-02-14T06:40:10;3.95;;;2.50;;
16820;SDS011;8527;49.740;6.604;2024-02-14T06:45:13;6.47;;;2.78;;
16820;SDS011;8527;49.740;6.604;2024-02-14T06:50:22;6.22;;;2.47;;
16820;SDS011;8527;49.740;6.604;2024-02-14T06:55:23;3.20;;;2.35;;
16820;SDS011;8527;49.740;6.604;2024-02-14T07:00:29;4.43;;;2.85;;
16820;SDS011;8527;49.740;6.604;2024-02-14T07:05:30;5.72;;;2.80;;
16820;SDS011;8527;49.740;6.604;2024-02-14T07:10:28;4.18;;;3.10;;
16820;SDS011;8527;49.740;6.604;2024-02-14T07:15:42;4.97;;;3.10;;
16820;SDS011;8527;49.740;6.604;2024-02-14T07:20:43;5.72;;;3.50;;
16820;SDS011;8527;49.740;6.604;2024-02-14T07:25:42;5.63;;;3.17;;
16820;SDS011;8527;49.740;6.604;2024-02-14T07:30:43;4.07;;;3.05;;
16820;SDS011;8527;49.740;6.604;2024-02-14T07:35:42;7.22;;;3.30;;
16820;SDS011;8527;49.740;6.604;2024-02-14T07:40:42;5.28;;;2.97;;
16820;SDS011;8527;49.740;6.604;2024-02-14T07:45:43;4.57;;;3.00;;
16820;SDS011;8527;49.740;6.604;2024-02-14T07:50:45;6.47;;;3.50;;
16820;SDS011;8527;49.740;6.604;2024-02-14T07:55:43;6.63;;;2.70;;
16820;SDS011;8527;49.740;6.604;2024-02-14T08:00:47;4.95;;;3.03;;
16820;SDS011;8527;49.740;6.604;2024-02-14T08:05:45;3.50;;;2.70;;
16820;SDS011;8527;49.740;6.604;2024-02-14T08:10:46;5.88;;;2.60;;
16820;SDS011;8527;49.740;6.604;2024-02-14T08:15:48;2.72;;;2.38;;
16820;SDS011;8527;49.740;6.604;2024-02-14T08:20:49;2.53;;;2.10;;
16820;SDS011;8527;49.740;6.604;2024-02-14T08:25:48;4.68;;;2.28;;
16820;SDS011;8527;49.740;6.604;2024-02-14T08:30:49;2.53;;;2.33;;
16820;SDS011;8527;49.740;6.604;2024-02-14T08:35:47;3.08;;;2.42;;
16820;SDS011;8527;49.740;6.604;2024-02-14T08:40:46;2.58;;;2.17;;
16820;SDS011;8527;49.740;6.604;2024-02-14T08:45:44;4.15;;;3.05;;
16820;SDS011;8527;49.740;6.604;2024-02-14T08:50:54;4.18;;;3.40;;
16820;SDS011;8527;49.740;6.604;2024-02-14T08:55:53;2.60;;;2.40;;
16820;SDS011;8527;49.740;6.604;2024-02-14T09:00:55;4.38;;;2.30;;
16820;SDS011;8527;49.740;6.604;2024-02-14T09:05:53;6.90;;;2.40;;
16820;SDS011;8527;49.740;6.604;2024-02-14T09:10:52;2.75;;;2.35;;
16820;SDS011;8527;49.740;6.604;2024-02-14T09:15:51;3.78;;;2.83;;
16820;SDS011;8527;49.740;6.604;2024-02-14T09:20:52;2.97;;;2.30;;
16820;SDS011;8527;49.740;6.604;2024-02-14T09:25:51;5.28;;;2.45;;
16820;SDS011;8527;49.740;6.604;2024-02-14T09:30:50;5.90;;;2.70;;
16820;SDS011;8527;49.740;6.604;2024-02-14T09:35:54;3.40;;;2.45;;
16820;SDS011;8527;49.740;6.604;2024-02-14T09:40:56;3.72;;;3.00;;
16820;SDS011;8527;49.740;6.604;2024-02-14T09:46:09;3.78;;;2.70;;
16820;SDS011;8527;49.740;6.604;2024-02-14T09:51:13;2.92;;;2.63;;
16820;SDS011;8527;49.740;6.604;2024-02-14T09:56:12;4.00;;;3.05;;
16820;SDS011;8527;49.740;6.604;2024-02-14T10:01:12;6.20;;;3.45;;
16820;SDS011;8527;49.740;6.604;2024-02-14T10:06:15;6.95;;;3.60;;
16820;SDS011;8527;49.740;6.604;2024-02-14T10:11:15;5.63;;;4.10;;
16820;SDS011;8527;49.740;6.604;2024-02-14T10:16:16;6.07;;;3.45;;
16820;SDS011;8527;49.740;6.604;2024-02-14T10:21:18;5.22;;;3.53;;
16820;SDS011;8527;49.740;6.604;2024-02-14T10:26:20;5.38;;;3.38;;
16820;SDS011;8527;49.740;6.604;2024-02-14T10:31:18;5.38;;;3.70;;
16820;SDS011;8527;49.740;6.604;2024-02-14T10:36:19;8.05;;;4.20;;
16820;SDS011;8527;49.740;6.604;2024-02-14T10:41:25;6.43;;;4.03;;
16820;SDS011;8527;49.740;6.604;2024-02-14T10:46:30;5.53;;;3.83;;
16820;SDS011;8527;49.740;6.604;2024-02-14T10:51:37;6.28;;;3.40;;
16820;SDS011;8527;49.740;6.604;2024-02-14T10:56:38;5.05;;;3.75;;
16820;SDS011;8527;49.740;6.604;2024-02-14T11:01:38;7.45;;;3.95;;
16820;SDS011;8527;49.740;6.604;2024-02-14T11:06:47;6.90;;;3.63;;
16820;SDS011;8527;49.740;6.604;2024-02-14T11:11:46;5.78;;;3.83;;
16820;SDS011;8527;49.740;6.604;2024-02-14T11:16:45;4.28;;;3.35;;
16820;SDS011;8527;49.740;6.604;2024-02-14T11:21:45;6.13;;;3.80;;
16820;SDS011;8527;49.740;6.604;2024-02-14T11:26:50;6.45;;;3.67;;
16820;SDS011;8527;49.740;6.604;2024-02-14T11:32:02;5.57;;;3.70;;
16820;SDS011;8527;49.740;6.604;2024-02-14T11:37:05;6.07;;;3.97;;
16820;SDS011;8527;49.740;6.604;2024-02-14T11:42:05;5.80;;;3.35;;
16820;SDS011;8527;49.740;6.604;2024-02-14T11:47:07;4.05;;;3.20;;
16820;SDS011;8527;49.740;6.604;2024-02-14T11:52:12;4.35;;;3.00;;
16820;SDS011;8527;49.740;6.604;2024-02-14T11:57:11;4.95;;;3.40;;
16820;SDS011;8527;49.740;6.604;2024-02-14T12:02:09;4.90;;;3.55;;
16820;SDS011;8527;49.740;6.604;2024-02-14T12:07:13;5.68;;;3.22;;
16820;SDS011;8527;49.740;6.604;2024-02-14T12:12:15;7.30;;;4.20;;
16820;SDS011;8527;49.740;6.604;2024-02-14T12:17:15;5.82;;;3.10;;
16820;SDS011;8527;49.740;6.604;2024-02-14T12:22:19;11.25;;;3.85;;
16820;SDS011;8527;49.740;6.604;2024-02-14T12:27:18;4.32;;;3.30;;
16820;SDS011;8527;49.740;6.604;2024-02-14T12:32:17;4.60;;;3.47;;
16820;SDS011;8527;49.740;6.604;2024-02-14T12:37:19;11.68;;;3.08;;
16820;SDS011;8527;49.740;6.604;2024-02-14T12:42:20;4.07;;;2.88;;
16820;SDS011;8527;49.740;6.604;2024-02-14T12:47:22;6.38;;;5.07;;
16820;SDS011;8527;49.740;6.604;2024-02-14T12:52:29;3.80;;;3.00;;
16820;SDS011;8527;49.740;6.604;2024-02-14T12:57:28;4.05;;;3.67;;
16820;SDS011;8527;49.740;6.604;2024-02-14T13:02:30;7.18;;;3.75;;
16820;SDS011;8527;49.740;6.604;2024-02-14T13:07:37;8.35;;;4.57;;
16820;SDS011;8527;49.740;6.604;2024-02-14T13:12:35;5.97;;;3.15;;
16820;SDS011;8527;49.740;6.604;2024-02-14T13:17:34;3.65;;;2.83;;
16820;SDS011;8527;49.740;6.604;2024-02-14T13:22:32;3.45;;;3.00;;
16820;SDS011;8527;49.740;6.604;2024-02-14T13:27:36;7.88;;;2.97;;
16820;SDS011;8527;49.740;6.604;2024-02-14T13:32:35;3.40;;;3.10;;
16820;SDS011;8527;49.740;6.604;2024-02-14T13:37:41;4.72;;;3.70;;
16820;SDS011;8527;49.740;6.604;2024-02-14T13:42:42;4.60;;;2.60;;
16820;SDS011;8527;49.740;6.604;2024-02-14T13:47:41;2.85;;;2.58;;
16820;SDS011;8527;49.740;6.604;2024-02-14T13:52:42;5.32;;;3.50;;
16820;SDS011;8527;49.740;6.604;2024-02-14T13:57:43;7.38;;;4.75;;
16820;SDS011;8527;49.740;6.604;2024-02-14T14:02:42;6.97;;;3.90;;
16820;SDS011;8527;49.740;6.604;2024-02-14T14:07:41;10.07;;;5.07;;
16820;SDS011;8527;49.740;6.604;2024-02-14T14:12:39;8.40;;;5.85;;
16820;SDS011;8527;49.740;6.604;2024-02-14T14:17:40;5.82;;;3.95;;
16820;SDS011;8527;49.740;6.604;2024-02-14T14:22:42;3.60;;;2.90;;
16820;SDS011;8527;49.740;6.604;2024-02-14T14:27:40;9.45;;;5.90;;
16820;SDS011;8527;49.740;6.604;2024-02-14T14:32:43;3.60;;;3.08;;
16820;SDS011;8527;49.740;6.604;2024-02-14T14:37:49;5.40;;;3.33;;
16820;SDS011;8527;49.740;6.604;2024-02-14T14:42:51;6.90;;;4.90;;
16820;SDS011;8527;49.740;6.604;2024-02-14T14:47:55;5.05;;;2.63;;
16820;SDS011;8527;49.740;6.604;2024-02-14T14:52:54;4.55;;;2.80;;
16820;SDS011;8527;49.740;6.604;2024-02-14T14:57:52;3.45;;;2.60;;
16820;SDS011;8527;49.740;6.604;2024-02-14T15:02:54;6.28;;;3.47;;
16820;SDS011;8527;49.740;6.604;2024-02-14T15:07:53;3.78;;;2.60;;
16820;SDS011;8527;49.740;6.604;2024-02-14T15:12:59;4.20;;;3.15;;
16820;SDS011;8527;49.740;6.604;2024-02-14T15:18:00;4.15;;;3.38;;
16820;SDS011;8527;49.740;6.604;2024-02-14T15:22:58;4.47;;;3.25;;
16820;SDS011;8527;49.740;6.604;2024-02-14T15:27:56;4.50;;;2.50;;
16820;SDS011;8527;49.740;6.604;2024-02-14T15:32:55;4.07;;;2.85;;
16820;SDS011;8527;49.740;6.604;2024-02-14T15:38:09;4.43;;;2.70;;
16820;SDS011;8527;49.740;6.604;2024-02-14T15:43:11;3.97;;;3.22;;
16820;SDS011;8527;49.740;6.604;2024-02-14T15:48:09;5.10;;;3.55;;
16820;SDS011;8527;49.740;6.604;2024-02-14T15:53:13;4.63;;;3.42;;
16820;SDS011;8527;49.740;6.604;2024-02-14T15:58:12;4.70;;;2.90;;
16820;SDS011;8527;49.740;6.604;2024-02-14T16:03:10;3.13;;;2.80;;
16820;SDS011;8527;49.740;6.604;2024-02-14T16:08:16;6.07;;;2.88;;
16820;SDS011;8527;49.740;6.604;2024-02-14T16:13:16;7.35;;;3.58;;
16820;SDS011;8527;49.740;6.604;2024-02-14T16:18:15;5.05;;;3.15;;
16820;SDS011;8527;49.740;6.604;2024-02-14T16:23:22;8.70;;;3.20;;
16820;SDS011;8527;49.740;6.604;2024-02-14T16:28:27;5.82;;;3.08;;
16820;SDS011;8527;49.740;6.604;2024-02-14T16:33:26;3.92;;;2.80;;
16820;SDS011;8527;49.740;6.604;2024-02-14T16:38:31;4.80;;;2.55;;
16820;SDS011;8527;49.740;6.604;2024-02-14T16:43:29;6.50;;;3.00;;
16820;SDS011;8527;49.740;6.604;2024-02-14T16:48:27;6.85;;;4.18;;
16820;SDS011;8527;49.740;6.604;2024-02-14T16:53:35;4.10;;;2.53;;
16820;SDS011;8527;49.740;6.604;2024-02-14T16:58:36;4.70;;;2.85;;
16820;SDS011;8527;49.740;6.604;2024-02-14T17:03:36;6.70;;;3.65;;
16820;SDS011;8527;49.740;6.604;2024-02-14T17:08:46;7.00;;;3.47;;
16820;SDS011;8527;49.740;6.604;2024-02-14T17:13:45;4.63;;;3.30;;
16820;SDS011;8527;49.740;6.604;2024-02-14T17:18:43;7.18;;;3.58;;
16820;SDS011;8527;49.740;6.604;2024-02-14T17:23:48;3.58;;;2.90;;
16820;SDS011;8527;49.740;6.604;2024-02-14T17:33:53;5.40;;;3.35;;
16820;SDS011;8527;49.740;6.604;2024-02-14T17:38:55;5.72;;;3.67;;
16820;SDS011;8527;49.740;6.604;2024-02-14T17:43:54;6.70;;;3.70;;
16820;SDS011;8527;49.740;6.604;2024-02-14T17:48:56;4.78;;;3.42;;
16820;SDS011;8527;49.740;6.604;2024-02-14T17:53:58;9.52;;;3.55;;
16820;SDS011;8527;49.740;6.604;2024-02-14T17:59:00;5.00;;;3.50;;
16820;SDS011;8527;49.740;6.604;2024-02-14T18:04:00;10.30;;;4.95;;
16820;SDS011;8527;49.740;6.604;2024-02-14T18:09:02;8.48;;;4.53;;
16820;SDS011;8527;49.740;6.604;2024-02-14T18:14:05;8.35;;;4.68;;
16820;SDS011;8527;49.740;6.604;2024-02-14T18:19:03;9.50;;;6.22;;
16820;SDS011;8527;49.740;6.604;2024-02-14T18:24:04;7.70;;;4.93;;
16820;SDS011;8527;49.740;6.604;2024-02-14T18:29:03;10.02;;;4.68;;
16820;SDS011;8527;49.740;6.604;2024-02-14T18:34:02;12.57;;;6.32;;
16820;SDS011;8527;49.740;6.604;2024-02-14T18:39:07;7.00;;;4.47;;
16820;SDS011;8527;49.740;6.604;2024-02-14T18:44:08;7.15;;;5.30;;
16820;SDS011;8527;49.740;6.604;2024-02-14T18:49:06;7.32;;;4.60;;
16820;SDS011;8527;49.740;6.604;2024-02-14T18:54:07;9.98;;;6.32;;
16820;SDS011;8527;49.740;6.604;2024-02-14T18:59:06;19.50;;;9.15;;
16820;SDS011;8527;49.740;6.604;2024-02-14T19:04:07;11.48;;;6.60;;
16820;SDS011;8527;49.740;6.604;2024-02-14T19:09:11;8.88;;;5.20;;
16820;SDS011;8527;49.740;6.604;2024-02-14T19:14:10;6.32;;;4.18;;
16820;SDS011;8527;49.740;6.604;2024-02-14T19:19:08;8.18;;;4.53;;
16820;SDS011;8527;49.740;6.604;2024-02-14T19:24:12;6.43;;;4.32;;
16820;SDS011;8527;49.740;6.604;2024-02-14T19:29:11;8.15;;;4.63;;
16820;SDS011;8527;49.740;6.604;2024-02-14T19:34:12;10.57;;;4.68;;
16820;SDS011;8527;49.740;6.604;2024-02-14T19:39:13;12.77;;;5.93;;
16820;SDS011;8527;49.740;6.604;2024-02-14T19:44:12;11.27;;;6.97;;
16820;SDS011;8527;49.740;6.604;2024-02-14T19:49:14;7.47;;;4.43;;
16820;SDS011;8527;49.740;6.604;2024-02-14T19:54:15;10.80;;;5.38;;
16820;SDS011;8527;49.740;6.604;2024-02-14T19:59:13;8.23;;;4.53;;
16820;SDS011;8527;49.740;6.604;2024-02-14T20:04:18;11.25;;;5.95;;
16820;SDS011;8527;49.740;6.604;2024-02-14T20:09:22;8.75;;;4.32;;
16820;SDS011;8527;49.740;6.604;2024-02-14T20:14:20;13.07;;;5.30;;
16820;SDS011;8527;49.740;6.604;2024-02-14T20:19:21;8.55;;;4.38;;
16820;SDS011;8527;49.740;6.604;2024-02-14T20:24:22;9.13;;;4.80;;
16820;SDS011;8527;49.740;6.604;2024-02-14T20:29:23;9.20;;;4.40;;
16820;SDS011;8527;49.740;6.604;2024-02-14T20:34:22;12.73;;;4.78;;
16820;SDS011;8527;49.740;6.604;2024-02-14T20:39:26;8.57;;;4.22;;
16820;SDS011;8527;49.740;6.604;2024-02-14T20:44:24;9.05;;;4.03;;
16820;SDS011;8527;49.740;6.604;2024-02-14T20:49:28;8.57;;;4.43;;
16820;SDS011;8527;49.740;6.604;2024-02-14T20:54:30;13.23;;;4.75;;
16820;SDS011;8527;49.740;6.604;2024-02-14T20:59:28;9.38;;;4.60;;
16820;SDS011;8527;49.740;6.604;2024-02-14T21:04:27;10.27;;;4.40;;
16820;SDS011;8527;49.740;6.604;2024-02-14T21:09:26;12.10;;;4.43;;
16820;SDS011;8527;49.740;6.604;2024-02-14T21:14:28;8.70;;;4.18;;
16820;SDS011;8527;49.740;6.604;2024-02-14T21:19:27;6.97;;;4.07;;
16820;SDS011;8527;49.740;6.604;2024-02-14T21:24:25;14.07;;;4.75;;
16820;SDS011;8527;49.740;6.604;2024-02-14T21:29:26;11.15;;;4.38;;
16820;SDS011;8527;49.740;6.604;2024-02-14T21:34:24;10.15;;;4.40;;
16820;SDS011;8527;49.740;6.604;2024-02-14T21:39:23;11.05;;;4.70;;
16820;SDS011;8527;49.740;6.604;2024-02-14T21:44:22;8.98;;;4.40;;
16820;SDS011;8527;49.740;6.604;2024-02-14T21:49:25;6.20;;;4.00;;
16820;SDS011;8527;49.740;6.604;2024-02-14T21:54:27;7.20;;;3.97;;
16820;SDS011;8527;49.740;6.604;2024-02-14T21:59:26;9.52;;;3.60;;
16820;SDS011;8527;49.740;6.604;2024-02-14T22:04:30;7.00;;;4.13;;
16820;SDS011;8527;49.740;6.604;2024-02-14T22:09:29;13.38;;;5.97;;
16820;SDS011;8527;49.740;6.604;2024-02-14T22:14:27;12.38;;;4.75;;
16820;SDS011;8527;49.740;6.604;2024-02-14T22:19:26;11.73;;;3.90;;
16820;SDS011;8527;49.740;6.604;2024-02-14T22:24:31;12.75;;;4.32;;
16820;SDS011;8527;49.740;6.604;2024-02-14T22:29:30;8.50;;;4.47;;
16820;SDS011;8527;49.740;6.604;2024-02-14T22:34:33;17.98;;;7.95;;
16820;SDS011;8527;49.740;6.604;2024-02-14T22:39:35;18.77;;;4.25;;
16820;SDS011;8527;49.740;6.604;2024-02-14T22:44:36;12.95;;;5.00;;
16820;SDS011;8527;49.740;6.604;2024-02-14T22:49:35;20.92;;;4.43;;
16820;SDS011;8527;49.740;6.604;2024-02-14T22:54:43;9.57;;;4.30;;
16820;SDS011;8527;49.740;6.604;2024-02-14T22:59:42;14.23;;;5.45;;
16820;SDS011;8527;49.740;6.604;2024-02-14T23:04:40;11.98;;;5.07;;
16820;SDS011;8527;49.740;6.604;2024-02-14T23:09:44;11.27;;;3.58;;
16820;SDS011;8527;49.740;6.604;2024-02-14T23:14:45;14.88;;;4.82;;
16820;SDS011;8527;49.740;6.604;2024-02-14T23:19:44;8.23;;;3.92;;
16820;SDS011;8527;49.740;6.604;2024-02-14T23:24:45;7.57;;;3.40;;
16820;SDS011;8527;49.740;6.604;2024-02-14T23:29:44;10.25;;;3.90;;
16820;SDS011;8527;49.740;6.604;2024-02-14T23:34:48;8.35;;;4.72;;
16820;SDS011;8527;49.740;6.604;2024-02-14T23:39:55;11.45;;;4.05;;
16820;SDS011;8527;49.740;6.604;2024-02-14T23:44:57;13.20;;;4.00;;
16820;SDS011;8527;49.740;6.604;2024-02-14T23:50:02;10.15;;;3.90;;
16820;SDS011;8527;49.740;6.604;2024-02-14T23:55:08;11.05;;;4.00;;
